sensor_id;sensor_type;location;lat;lon;timestamp;temperature;humidity
4223;DHT22;2125;51.436;14.138;2023-09-30T00:00:06;18.90;79.90
4223;DHT22;2125;51.436;14.138;2023-09-30T00:02:34;19.00;80.00
4223;DHT22;2125;51.436;14.138;2023-09-30T00:05:01;19.10;79.90
4223;DHT22;2125;51.436;14.138;2023-09-30T00:07:29;19.10;80.00
4223;DHT22;2125;51.436;14.138;2023-09-30T00:09:57;19.10;79.90
4223;DHT22;2125;51.436;14.138;2023-09-30T00:12:24;19.20;79.90
4223;DHT22;2125;51.436;14.138;2023-09-30T00:14:51;19.30;80.00
4223;DHT22;2125;51.436;14.138;2023-09-30T00:17:17;19.30;80.10
4223;DHT22;2125;51.436;14.138;2023-09-30T00:19:44;19.30;80.10
4223;DHT22;2125;51.436;14.138;2023-09-30T00:22:11;19.40;80.20
4223;DHT22;2125;51.436;14.138;2023-09-30T00:24:38;19.40;80.20
4223;DHT22;2125;51.436;14.138;2023-09-30T00:27:06;19.40;80.20
4223;DHT22;2125;51.436;14.138;2023-09-30T00:29:33;19.40;80.20
4223;DHT22;2125;51.436;14.138;2023-09-30T00:32:01;19.30;80.30
4223;DHT22;2125;51.436;14.138;2023-09-30T00:34:27;19.30;80.30
4223;DHT22;2125;51.436;14.138;2023-09-30T00:36:54;19.30;80.20
4223;DHT22;2125;51.436;14.138;2023-09-30T00:39:21;19.30;80.30
4223;DHT22;2125;51.436;14.138;2023-09-30T00:41:48;19.30;80.20
4223;DHT22;2125;51.436;14.138;2023-09-30T00:44:16;19.30;80.30
4223;DHT22;2125;51.436;14.138;2023-09-30T00:46:43;19.40;80.20
4223;DHT22;2125;51.436;14.138;2023-09-30T00:49:10;19.30;80.10
4223;DHT22;2125;51.436;14.138;2023-09-30T00:51:40;19.40;80.20
4223;DHT22;2125;51.436;14.138;2023-09-30T00:54:07;19.40;80.10
4223;DHT22;2125;51.436;14.138;2023-09-30T00:56:36;19.40;80.10
4223;DHT22;2125;51.436;14.138;2023-09-30T00:59:04;19.30;80.00
4223;DHT22;2125;51.436;14.138;2023-09-30T01:01:33;19.20;79.60
4223;DHT22;2125;51.436;14.138;2023-09-30T01:04:00;19.00;79.30
4223;DHT22;2125;51.436;14.138;2023-09-30T01:06:27;18.80;78.90
4223;DHT22;2125;51.436;14.138;2023-09-30T01:08:54;18.60;78.50
4223;DHT22;2125;51.436;14.138;2023-09-30T01:11:21;18.40;78.30
4223;DHT22;2125;51.436;14.138;2023-09-30T01:13:48;18.30;78.60
4223;DHT22;2125;51.436;14.138;2023-09-30T01:16:15;18.20;78.40
4223;DHT22;2125;51.436;14.138;2023-09-30T01:18:43;18.00;78.00
4223;DHT22;2125;51.436;14.138;2023-09-30T01:21:10;17.90;77.80
4223;DHT22;2125;51.436;14.138;2023-09-30T01:23:39;17.90;77.90
4223;DHT22;2125;51.436;14.138;2023-09-30T01:26:10;17.70;79.10
4223;DHT22;2125;51.436;14.138;2023-09-30T01:28:38;17.60;79.30
4223;DHT22;2125;51.436;14.138;2023-09-30T01:31:05;17.50;79.20
4223;DHT22;2125;51.436;14.138;2023-09-30T01:33:32;17.50;79.20
4223;DHT22;2125;51.436;14.138;2023-09-30T01:35:59;17.40;79.30
4223;DHT22;2125;51.436;14.138;2023-09-30T01:38:26;17.40;79.50
4223;DHT22;2125;51.436;14.138;2023-09-30T01:40:54;17.40;79.70
4223;DHT22;2125;51.436;14.138;2023-09-30T01:43:21;17.30;79.80
4223;DHT22;2125;51.436;14.138;2023-09-30T01:45:48;17.30;79.80
4223;DHT22;2125;51.436;14.138;2023-09-30T01:48:15;17.40;79.90
4223;DHT22;2125;51.436;14.138;2023-09-30T01:50:42;17.40;80.10
4223;DHT22;2125;51.436;14.138;2023-09-30T01:53:09;17.40;80.10
4223;DHT22;2125;51.436;14.138;2023-09-30T01:55:35;17.30;80.00
4223;DHT22;2125;51.436;14.138;2023-09-30T01:58:04;17.30;80.00
4223;DHT22;2125;51.436;14.138;2023-09-30T02:00:31;17.30;80.00
4223;DHT22;2125;51.436;14.138;2023-09-30T02:02:58;17.30;80.10
4223;DHT22;2125;51.436;14.138;2023-09-30T02:05:25;17.30;80.20
4223;DHT22;2125;51.436;14.138;2023-09-30T02:07:52;17.30;80.10
4223;DHT22;2125;51.436;14.138;2023-09-30T02:10:20;17.30;80.30
4223;DHT22;2125;51.436;14.138;2023-09-30T02:12:47;17.30;80.50
4223;DHT22;2125;51.436;14.138;2023-09-30T02:15:15;17.20;80.80
4223;DHT22;2125;51.436;14.138;2023-09-30T02:17:42;17.30;80.80
4223;DHT22;2125;51.436;14.138;2023-09-30T02:20:12;17.30;80.70
4223;DHT22;2125;51.436;14.138;2023-09-30T02:22:44;17.30;80.80
4223;DHT22;2125;51.436;14.138;2023-09-30T02:25:12;17.30;80.80
4223;DHT22;2125;51.436;14.138;2023-09-30T02:27:39;17.30;80.90
4223;DHT22;2125;51.436;14.138;2023-09-30T02:30:08;17.30;80.90
4223;DHT22;2125;51.436;14.138;2023-09-30T02:32:38;17.30;80.90
4223;DHT22;2125;51.436;14.138;2023-09-30T02:35:06;17.30;80.80
4223;DHT22;2125;51.436;14.138;2023-09-30T02:37:33;17.20;80.90
4223;DHT22;2125;51.436;14.138;2023-09-30T02:40:03;17.20;80.90
4223;DHT22;2125;51.436;14.138;2023-09-30T02:42:35;17.10;81.00
4223;DHT22;2125;51.436;14.138;2023-09-30T02:45:02;17.00;80.80
4223;DHT22;2125;51.436;14.138;2023-09-30T02:47:29;16.90;80.10
4223;DHT22;2125;51.436;14.138;2023-09-30T02:49:58;16.80;79.50
4223;DHT22;2125;51.436;14.138;2023-09-30T02:52:25;16.80;79.20
4223;DHT22;2125;51.436;14.138;2023-09-30T02:54:54;16.70;79.10
4223;DHT22;2125;51.436;14.138;2023-09-30T02:57:22;16.70;78.80
4223;DHT22;2125;51.436;14.138;2023-09-30T02:59:49;16.70;78.70
4223;DHT22;2125;51.436;14.138;2023-09-30T03:02:17;16.70;78.70
4223;DHT22;2125;51.436;14.138;2023-09-30T03:04:44;16.60;78.30
4223;DHT22;2125;51.436;14.138;2023-09-30T03:07:13;16.60;78.60
4223;DHT22;2125;51.436;14.138;2023-09-30T03:09:40;16.60;78.00
4223;DHT22;2125;51.436;14.138;2023-09-30T03:12:07;16.50;77.70
4223;DHT22;2125;51.436;14.138;2023-09-30T03:14:34;16.50;77.70
4223;DHT22;2125;51.436;14.138;2023-09-30T03:17:01;16.40;77.20
4223;DHT22;2125;51.436;14.138;2023-09-30T03:19:29;16.30;76.80
4223;DHT22;2125;51.436;14.138;2023-09-30T03:21:55;16.30;77.40
4223;DHT22;2125;51.436;14.138;2023-09-30T03:24:24;16.30;77.60
4223;DHT22;2125;51.436;14.138;2023-09-30T03:26:52;16.20;77.60
4223;DHT22;2125;51.436;14.138;2023-09-30T03:29:19;16.20;77.60
4223;DHT22;2125;51.436;14.138;2023-09-30T03:31:46;16.20;77.40
4223;DHT22;2125;51.436;14.138;2023-09-30T03:34:13;16.10;77.60
4223;DHT22;2125;51.436;14.138;2023-09-30T03:36:41;16.10;77.70
4223;DHT22;2125;51.436;14.138;2023-09-30T03:39:08;16.00;77.90
4223;DHT22;2125;51.436;14.138;2023-09-30T03:41:41;16.00;77.90
4223;DHT22;2125;51.436;14.138;2023-09-30T03:44:08;15.90;78.00
4223;DHT22;2125;51.436;14.138;2023-09-30T03:46:35;15.80;78.30
4223;DHT22;2125;51.436;14.138;2023-09-30T03:49:02;15.80;78.40
4223;DHT22;2125;51.436;14.138;2023-09-30T03:51:29;15.70;78.40
4223;DHT22;2125;51.436;14.138;2023-09-30T03:53:56;15.70;78.30
4223;DHT22;2125;51.436;14.138;2023-09-30T03:56:23;15.60;78.50
4223;DHT22;2125;51.436;14.138;2023-09-30T03:58:52;15.60;78.80
4223;DHT22;2125;51.436;14.138;2023-09-30T04:01:19;15.50;78.90
4223;DHT22;2125;51.436;14.138;2023-09-30T04:03:46;15.50;79.00
4223;DHT22;2125;51.436;14.138;2023-09-30T04:06:13;15.50;79.10
4223;DHT22;2125;51.436;14.138;2023-09-30T04:08:39;15.40;79.30
4223;DHT22;2125;51.436;14.138;2023-09-30T04:11:09;15.30;79.50
4223;DHT22;2125;51.436;14.138;2023-09-30T04:13:40;15.30;79.60
4223;DHT22;2125;51.436;14.138;2023-09-30T04:16:08;15.20;79.80
4223;DHT22;2125;51.436;14.138;2023-09-30T04:18:35;15.20;79.90
4223;DHT22;2125;51.436;14.138;2023-09-30T04:21:02;15.10;80.10
4223;DHT22;2125;51.436;14.138;2023-09-30T04:23:29;15.10;80.10
4223;DHT22;2125;51.436;14.138;2023-09-30T04:25:56;15.00;80.30
4223;DHT22;2125;51.436;14.138;2023-09-30T04:28:22;15.00;80.30
4223;DHT22;2125;51.436;14.138;2023-09-30T04:30:50;15.00;80.40
4223;DHT22;2125;51.436;14.138;2023-09-30T04:33:18;15.00;80.30
4223;DHT22;2125;51.436;14.138;2023-09-30T04:35:45;14.90;80.60
4223;DHT22;2125;51.436;14.138;2023-09-30T04:38:13;14.90;80.70
4223;DHT22;2125;51.436;14.138;2023-09-30T04:40:39;14.80;80.70
4223;DHT22;2125;51.436;14.138;2023-09-30T04:43:06;14.80;80.80
4223;DHT22;2125;51.436;14.138;2023-09-30T04:45:33;14.80;80.90
4223;DHT22;2125;51.436;14.138;2023-09-30T04:48:00;14.70;81.10
4223;DHT22;2125;51.436;14.138;2023-09-30T04:50:29;14.70;81.30
4223;DHT22;2125;51.436;14.138;2023-09-30T04:52:56;14.60;81.30
4223;DHT22;2125;51.436;14.138;2023-09-30T04:55:24;14.50;81.50
4223;DHT22;2125;51.436;14.138;2023-09-30T04:57:52;14.40;81.50
4223;DHT22;2125;51.436;14.138;2023-09-30T05:00:19;14.40;81.60
4223;DHT22;2125;51.436;14.138;2023-09-30T05:02:50;14.30;81.60
4223;DHT22;2125;51.436;14.138;2023-09-30T05:05:18;14.30;81.70
4223;DHT22;2125;51.436;14.138;2023-09-30T05:07:46;14.20;81.70
4223;DHT22;2125;51.436;14.138;2023-09-30T05:10:14;14.10;81.70
4223;DHT22;2125;51.436;14.138;2023-09-30T05:12:42;14.10;81.70
4223;DHT22;2125;51.436;14.138;2023-09-30T05:15:11;14.00;81.70
4223;DHT22;2125;51.436;14.138;2023-09-30T05:17:39;13.90;81.70
4223;DHT22;2125;51.436;14.138;2023-09-30T05:20:07;13.80;81.50
4223;DHT22;2125;51.436;14.138;2023-09-30T05:22:34;13.80;81.50
4223;DHT22;2125;51.436;14.138;2023-09-30T05:25:02;13.80;81.30
4223;DHT22;2125;51.436;14.138;2023-09-30T05:27:29;13.80;81.30
4223;DHT22;2125;51.436;14.138;2023-09-30T05:29:56;13.80;81.30
4223;DHT22;2125;51.436;14.138;2023-09-30T05:32:23;13.90;81.30
4223;DHT22;2125;51.436;14.138;2023-09-30T05:34:52;13.80;81.10
4223;DHT22;2125;51.436;14.138;2023-09-30T05:37:24;13.90;81.00
4223;DHT22;2125;51.436;14.138;2023-09-30T05:39:51;14.00;80.90
4223;DHT22;2125;51.436;14.138;2023-09-30T05:42:20;14.00;80.90
4223;DHT22;2125;51.436;14.138;2023-09-30T05:44:47;14.10;80.80
4223;DHT22;2125;51.436;14.138;2023-09-30T05:47:14;14.10;80.90
4223;DHT22;2125;51.436;14.138;2023-09-30T05:49:42;14.20;80.90
4223;DHT22;2125;51.436;14.138;2023-09-30T05:52:09;14.30;80.80
4223;DHT22;2125;51.436;14.138;2023-09-30T05:54:35;14.40;80.70
4223;DHT22;2125;51.436;14.138;2023-09-30T05:57:03;14.40;80.80
4223;DHT22;2125;51.436;14.138;2023-09-30T05:59:31;14.50;80.70
4223;DHT22;2125;51.436;14.138;2023-09-30T06:01:58;14.60;80.80
4223;DHT22;2125;51.436;14.138;2023-09-30T06:04:25;14.60;80.80
4223;DHT22;2125;51.436;14.138;2023-09-30T06:06:52;14.70;80.80
4223;DHT22;2125;51.436;14.138;2023-09-30T06:09:18;14.70;80.90
4223;DHT22;2125;51.436;14.138;2023-09-30T06:11:50;14.80;80.90
4223;DHT22;2125;51.436;14.138;2023-09-30T06:14:17;14.80;80.90
4223;DHT22;2125;51.436;14.138;2023-09-30T06:16:45;14.80;80.80
4223;DHT22;2125;51.436;14.138;2023-09-30T06:19:13;14.90;80.90
4223;DHT22;2125;51.436;14.138;2023-09-30T06:21:40;14.90;81.00
4223;DHT22;2125;51.436;14.138;2023-09-30T06:24:08;14.90;80.90
4223;DHT22;2125;51.436;14.138;2023-09-30T06:26:34;14.90;80.80
4223;DHT22;2125;51.436;14.138;2023-09-30T06:29:01;15.00;80.70
4223;DHT22;2125;51.436;14.138;2023-09-30T06:31:28;15.10;80.90
4223;DHT22;2125;51.436;14.138;2023-09-30T06:33:56;15.10;81.00
4223;DHT22;2125;51.436;14.138;2023-09-30T06:36:25;15.00;81.20
4223;DHT22;2125;51.436;14.138;2023-09-30T06:38:52;15.00;81.00
4223;DHT22;2125;51.436;14.138;2023-09-30T06:41:19;14.90;80.80
4223;DHT22;2125;51.436;14.138;2023-09-30T06:43:46;14.90;81.10
4223;DHT22;2125;51.436;14.138;2023-09-30T06:46:13;14.80;80.90
4223;DHT22;2125;51.436;14.138;2023-09-30T06:48:40;14.90;80.80
4223;DHT22;2125;51.436;14.138;2023-09-30T06:51:12;14.80;80.80
4223;DHT22;2125;51.436;14.138;2023-09-30T06:53:39;14.70;80.60
4223;DHT22;2125;51.436;14.138;2023-09-30T06:56:06;14.70;80.40
4223;DHT22;2125;51.436;14.138;2023-09-30T06:58:33;14.70;80.50
4223;DHT22;2125;51.436;14.138;2023-09-30T07:01:00;14.60;80.40
4223;DHT22;2125;51.436;14.138;2023-09-30T07:03:27;14.60;80.40
4223;DHT22;2125;51.436;14.138;2023-09-30T07:05:55;14.70;80.20
4223;DHT22;2125;51.436;14.138;2023-09-30T07:08:27;14.70;80.10
4223;DHT22;2125;51.436;14.138;2023-09-30T07:10:55;14.80;80.40
4223;DHT22;2125;51.436;14.138;2023-09-30T07:13:22;14.90;80.20
4223;DHT22;2125;51.436;14.138;2023-09-30T07:15:49;15.10;80.60
4223;DHT22;2125;51.436;14.138;2023-09-30T07:18:16;15.20;81.10
4223;DHT22;2125;51.436;14.138;2023-09-30T07:20:43;15.20;80.90
4223;DHT22;2125;51.436;14.138;2023-09-30T07:23:10;15.30;80.90
4223;DHT22;2125;51.436;14.138;2023-09-30T07:25:40;15.30;80.90
4223;DHT22;2125;51.436;14.138;2023-09-30T07:28:07;15.60;81.00
4223;DHT22;2125;51.436;14.138;2023-09-30T07:30:37;15.70;81.30
4223;DHT22;2125;51.436;14.138;2023-09-30T07:33:04;15.70;81.20
4223;DHT22;2125;51.436;14.138;2023-09-30T07:35:32;15.80;81.30
4223;DHT22;2125;51.436;14.138;2023-09-30T07:37:59;15.90;81.20
4223;DHT22;2125;51.436;14.138;2023-09-30T07:40:26;15.80;81.40
4223;DHT22;2125;51.436;14.138;2023-09-30T07:42:56;15.80;81.30
4223;DHT22;2125;51.436;14.138;2023-09-30T07:45:23;15.80;81.30
4223;DHT22;2125;51.436;14.138;2023-09-30T07:47:50;15.80;81.40
4223;DHT22;2125;51.436;14.138;2023-09-30T07:50:17;15.90;81.50
4223;DHT22;2125;51.436;14.138;2023-09-30T07:52:44;16.10;81.10
4223;DHT22;2125;51.436;14.138;2023-09-30T07:55:11;16.30;81.10
4223;DHT22;2125;51.436;14.138;2023-09-30T07:57:40;16.60;81.10
4223;DHT22;2125;51.436;14.138;2023-09-30T08:00:09;16.60;79.80
4223;DHT22;2125;51.436;14.138;2023-09-30T08:02:40;16.60;80.50
4223;DHT22;2125;51.436;14.138;2023-09-30T08:05:08;16.60;79.80
4223;DHT22;2125;51.436;14.138;2023-09-30T08:07:35;16.70;80.60
4223;DHT22;2125;51.436;14.138;2023-09-30T08:10:02;16.80;79.90
4223;DHT22;2125;51.436;14.138;2023-09-30T08:12:30;17.00;79.60
4223;DHT22;2125;51.436;14.138;2023-09-30T08:14:57;17.00;79.20
4223;DHT22;2125;51.436;14.138;2023-09-30T08:17:25;17.00;79.40
4223;DHT22;2125;51.436;14.138;2023-09-30T08:19:52;17.10;79.30
4223;DHT22;2125;51.436;14.138;2023-09-30T08:22:19;17.40;79.50
4223;DHT22;2125;51.436;14.138;2023-09-30T08:24:46;17.50;78.00
4223;DHT22;2125;51.436;14.138;2023-09-30T08:27:13;17.50;76.80
4223;DHT22;2125;51.436;14.138;2023-09-30T08:29:40;17.60;77.10
4223;DHT22;2125;51.436;14.138;2023-09-30T08:32:08;17.60;77.10
4223;DHT22;2125;51.436;14.138;2023-09-30T08:34:36;17.70;75.70
4223;DHT22;2125;51.436;14.138;2023-09-30T08:37:03;17.80;75.80
4223;DHT22;2125;51.436;14.138;2023-09-30T08:39:30;17.70;74.80
4223;DHT22;2125;51.436;14.138;2023-09-30T08:41:57;17.40;75.40
4223;DHT22;2125;51.436;14.138;2023-09-30T08:44:24;17.30;76.00
4223;DHT22;2125;51.436;14.138;2023-09-30T08:46:52;17.40;76.30
4223;DHT22;2125;51.436;14.138;2023-09-30T08:49:20;17.40;77.20
4223;DHT22;2125;51.436;14.138;2023-09-30T08:51:49;17.40;77.30
4223;DHT22;2125;51.436;14.138;2023-09-30T08:54:17;17.30;75.90
4223;DHT22;2125;51.436;14.138;2023-09-30T08:56:47;17.30;75.90
4223;DHT22;2125;51.436;14.138;2023-09-30T08:59:15;17.40;75.90
4223;DHT22;2125;51.436;14.138;2023-09-30T09:01:43;17.60;76.70
4223;DHT22;2125;51.436;14.138;2023-09-30T09:04:10;17.80;75.20
4223;DHT22;2125;51.436;14.138;2023-09-30T09:06:37;17.90;75.60
4223;DHT22;2125;51.436;14.138;2023-09-30T09:09:15;17.90;75.70
4223;DHT22;2125;51.436;14.138;2023-09-30T09:11:43;18.00;75.50
4223;DHT22;2125;51.436;14.138;2023-09-30T09:14:10;18.10;75.90
4223;DHT22;2125;51.436;14.138;2023-09-30T09:16:37;18.20;75.30
4223;DHT22;2125;51.436;14.138;2023-09-30T09:19:13;18.20;74.40
4223;DHT22;2125;51.436;14.138;2023-09-30T09:21:53;18.30;72.40
4223;DHT22;2125;51.436;14.138;2023-09-30T09:24:29;18.30;72.80
4223;DHT22;2125;51.436;14.138;2023-09-30T09:27:06;18.20;71.90
4223;DHT22;2125;51.436;14.138;2023-09-30T09:29:33;18.00;72.20
4223;DHT22;2125;51.436;14.138;2023-09-30T09:32:11;18.00;72.40
4223;DHT22;2125;51.436;14.138;2023-09-30T09:34:38;18.20;71.80
4223;DHT22;2125;51.436;14.138;2023-09-30T09:37:13;18.10;71.70
4223;DHT22;2125;51.436;14.138;2023-09-30T09:39:49;18.00;72.90
4223;DHT22;2125;51.436;14.138;2023-09-30T09:42:25;18.00;72.60
4223;DHT22;2125;51.436;14.138;2023-09-30T09:44:54;18.10;72.30
4223;DHT22;2125;51.436;14.138;2023-09-30T09:47:22;18.10;71.70
4223;DHT22;2125;51.436;14.138;2023-09-30T09:49:50;18.20;72.00
4223;DHT22;2125;51.436;14.138;2023-09-30T09:52:18;18.20;71.40
4223;DHT22;2125;51.436;14.138;2023-09-30T09:54:47;18.30;72.80
4223;DHT22;2125;51.436;14.138;2023-09-30T09:57:16;18.40;72.30
4223;DHT22;2125;51.436;14.138;2023-09-30T09:59:44;18.50;70.20
4223;DHT22;2125;51.436;14.138;2023-09-30T10:02:14;18.40;68.80
4223;DHT22;2125;51.436;14.138;2023-09-30T10:04:41;18.50;70.50
4223;DHT22;2125;51.436;14.138;2023-09-30T10:07:12;18.40;70.40
4223;DHT22;2125;51.436;14.138;2023-09-30T10:09:44;18.40;71.10
4223;DHT22;2125;51.436;14.138;2023-09-30T10:12:15;18.40;70.80
4223;DHT22;2125;51.436;14.138;2023-09-30T10:14:42;18.40;72.20
4223;DHT22;2125;51.436;14.138;2023-09-30T10:17:09;18.30;70.70
4223;DHT22;2125;51.436;14.138;2023-09-30T10:19:36;18.20;69.80
4223;DHT22;2125;51.436;14.138;2023-09-30T10:22:23;18.00;71.20
4223;DHT22;2125;51.436;14.138;2023-09-30T10:24:51;17.80;71.30
4223;DHT22;2125;51.436;14.138;2023-09-30T10:27:34;17.80;72.30
4223;DHT22;2125;51.436;14.138;2023-09-30T10:30:10;18.20;72.30
4223;DHT22;2125;51.436;14.138;2023-09-30T10:33:13;18.50;70.30
4223;DHT22;2125;51.436;14.138;2023-09-30T10:35:47;18.60;68.50
4223;DHT22;2125;51.436;14.138;2023-09-30T10:38:38;18.40;68.70
4223;DHT22;2125;51.436;14.138;2023-09-30T10:41:08;18.50;68.30
4223;DHT22;2125;51.436;14.138;2023-09-30T10:43:39;18.60;67.10
4223;DHT22;2125;51.436;14.138;2023-09-30T10:46:31;18.70;68.10
4223;DHT22;2125;51.436;14.138;2023-09-30T10:49:15;18.60;66.90
